createdAt,value
2022-08-16T00:01:59.849Z,21.20
2022-08-16T00:04:30.164Z,21.20
2022-08-16T00:07:02.206Z,21.20
2022-08-16T00:09:30.780Z,21.10
2022-08-16T00:12:00.496Z,21.10
2022-08-16T00:14:33.633Z,21.10
2022-08-16T00:17:16.107Z,21.10
2022-08-16T00:19:46.207Z,21.00
2022-08-16T00:22:16.630Z,21.00
2022-08-16T00:24:46.703Z,21.00
2022-08-16T00:27:14.566Z,21.00
2022-08-16T00:29:44.416Z,21.00
2022-08-16T00:32:17.982Z,21.00
2022-08-16T00:34:53.096Z,21.00
2022-08-16T00:37:57.688Z,21.00
2022-08-16T00:40:34.755Z,21.00
2022-08-16T00:43:16.992Z,21.00
2022-08-16T00:46:01.305Z,21.00
2022-08-16T00:48:50.725Z,20.90
2022-08-16T00:51:21.902Z,20.90
2022-08-16T00:53:50.084Z,20.90
2022-08-16T00:56:58.135Z,20.90
2022-08-16T00:59:28.925Z,20.90
2022-08-16T01:01:59.181Z,20.90
2022-08-16T01:04:31.865Z,20.80
2022-08-16T01:07:03.311Z,20.90
2022-08-16T01:09:42.752Z,20.90
2022-08-16T01:12:11.370Z,20.80
2022-08-16T01:14:59.913Z,20.90
2022-08-16T01:17:30.150Z,20.90
2022-08-16T01:20:23.592Z,20.80
2022-08-16T01:22:58.911Z,20.80
2022-08-16T01:25:37.652Z,20.80
2022-08-16T01:28:20.000Z,20.80
2022-08-16T01:30:55.307Z,20.80
2022-08-16T01:33:23.944Z,20.80
2022-08-16T01:36:00.581Z,20.70
2022-08-16T01:38:34.432Z,20.70
2022-08-16T01:41:19.356Z,20.70
2022-08-16T01:43:53.642Z,20.70
2022-08-16T01:46:40.183Z,20.70
2022-08-16T01:49:45.719Z,20.60
2022-08-16T01:52:29.252Z,20.60
2022-08-16T01:55:17.613Z,20.60
2022-08-16T01:57:53.150Z,20.60
2022-08-16T02:00:28.847Z,20.60
2022-08-16T02:02:58.959Z,20.60
2022-08-16T02:05:31.146Z,20.50
2022-08-16T02:08:02.353Z,20.60
2022-08-16T02:10:33.889Z,20.50
2022-08-16T02:13:05.294Z,20.50
2022-08-16T02:15:42.516Z,20.50
2022-08-16T02:18:13.262Z,20.50
2022-08-16T02:20:53.446Z,20.50
2022-08-16T02:23:27.146Z,20.50
2022-08-16T02:25:59.687Z,20.50
2022-08-16T02:28:30.086Z,20.50
2022-08-16T02:31:05.005Z,20.40
2022-08-16T02:33:44.173Z,20.40
2022-08-16T02:36:47.716Z,20.40
2022-08-16T02:39:22.373Z,20.40
2022-08-16T02:41:53.082Z,20.40
2022-08-16T02:44:23.323Z,20.40
2022-08-16T02:46:55.186Z,20.40
2022-08-16T02:49:58.091Z,20.40
2022-08-16T02:52:17.354Z,20.40
2022-08-16T02:54:56.638Z,20.30
2022-08-16T02:57:28.888Z,20.40
2022-08-16T02:59:58.429Z,20.30
2022-08-16T03:02:31.954Z,20.40
2022-08-16T03:05:04.803Z,20.40
2022-08-16T03:07:37.022Z,20.30
2022-08-16T03:10:11.290Z,20.30
2022-08-16T03:12:55.906Z,20.30
2022-08-16T03:15:25.592Z,20.30
2022-08-16T03:18:02.753Z,20.20
2022-08-16T03:20:44.757Z,20.30
2022-08-16T03:23:26.555Z,20.30
2022-08-16T03:26:03.161Z,20.30
2022-08-16T03:28:31.277Z,20.30
2022-08-16T03:30:58.669Z,20.20
2022-08-16T03:33:30.962Z,20.30
2022-08-16T03:36:29.970Z,20.20
2022-08-16T03:38:56.137Z,20.20
2022-08-16T03:41:29.517Z,20.20
2022-08-16T03:44:45.055Z,20.20
2022-08-16T03:47:04.903Z,20.20
2022-08-16T03:49:37.696Z,20.10
2022-08-16T03:52:07.906Z,20.20
2022-08-16T03:54:39.142Z,20.20
2022-08-16T03:57:24.533Z,20.20
2022-08-16T04:00:12.347Z,20.20
2022-08-16T04:03:08.641Z,20.10
2022-08-16T04:05:46.709Z,20.20
2022-08-16T04:08:23.291Z,20.20
2022-08-16T04:10:54.389Z,20.20
2022-08-16T04:14:01.658Z,20.20
2022-08-16T04:16:27.590Z,20.30
2022-08-16T04:19:18.554Z,20.30
2022-08-16T04:21:56.781Z,20.30
2022-08-16T04:24:28.702Z,20.30
2022-08-16T04:26:56.805Z,20.30
2022-08-16T04:29:46.242Z,20.40
2022-08-16T04:32:15.024Z,20.40
2022-08-16T04:34:50.076Z,20.40
2022-08-16T04:37:20.176Z,20.40
2022-08-16T04:39:57.289Z,20.50
2022-08-16T04:42:29.684Z,20.50
2022-08-16T04:45:08.147Z,20.50
2022-08-16T04:47:36.341Z,20.70
2022-08-16T04:50:18.272Z,20.70
2022-08-16T04:53:26.213Z,20.80
2022-08-16T04:56:01.467Z,20.90
2022-08-16T04:58:44.723Z,21.00
2022-08-16T05:01:20.554Z,21.00
2022-08-16T05:03:59.984Z,21.20
2022-08-16T05:06:42.055Z,21.20
2022-08-16T05:09:23.152Z,21.30
2022-08-16T05:11:57.919Z,21.40
2022-08-16T05:14:45.880Z,21.50
2022-08-16T05:17:24.893Z,21.60
2022-08-16T05:19:58.684Z,21.60
2022-08-16T05:22:38.609Z,21.70
2022-08-16T05:25:10.298Z,21.80
2022-08-16T05:27:46.285Z,21.90
2022-08-16T05:30:35.178Z,22.00
2022-08-16T05:33:16.190Z,22.00
2022-08-16T05:35:55.089Z,22.10
2022-08-16T05:38:39.396Z,22.20
2022-08-16T05:41:13.921Z,22.30
2022-08-16T05:43:46.836Z,22.40
2022-08-16T05:46:28.673Z,22.50
2022-08-16T05:49:06.118Z,22.50
2022-08-16T05:51:41.468Z,22.60
2022-08-16T05:54:13.840Z,22.60
2022-08-16T05:56:42.933Z,22.70
2022-08-16T05:59:15.736Z,22.70
2022-08-16T06:01:51.826Z,22.80
2022-08-16T06:04:35.481Z,23.00
2022-08-16T06:07:08.867Z,23.00
2022-08-16T06:09:43.560Z,23.10
2022-08-16T06:12:27.964Z,23.20
2022-08-16T06:15:07.629Z,23.20
2022-08-16T06:17:43.396Z,23.30
2022-08-16T06:20:23.443Z,23.30
2022-08-16T06:23:04.059Z,23.40
2022-08-16T06:26:15.771Z,23.50
2022-08-16T06:28:46.963Z,23.60
2022-08-16T06:31:25.002Z,23.60
2022-08-16T06:33:56.349Z,23.70
2022-08-16T06:36:26.812Z,23.70
2022-08-16T06:39:12.858Z,23.70
2022-08-16T06:41:59.399Z,23.70
2022-08-16T06:44:50.757Z,23.70
2022-08-16T06:47:52.799Z,23.80
2022-08-16T06:50:29.699Z,23.80
2022-08-16T06:53:09.010Z,23.90
2022-08-16T06:55:57.585Z,23.90
2022-08-16T06:58:36.911Z,23.90
2022-08-16T07:01:14.863Z,24.00
2022-08-16T07:03:55.542Z,24.00
2022-08-16T07:06:28.402Z,24.10
2022-08-16T07:09:02.925Z,24.10
2022-08-16T07:11:46.165Z,24.10
2022-08-16T07:14:28.525Z,24.10
2022-08-16T07:17:03.570Z,24.20
2022-08-16T07:20:02.778Z,24.20
2022-08-16T07:22:37.051Z,24.30
2022-08-16T07:25:28.327Z,24.30
2022-08-16T07:27:55.957Z,24.30
2022-08-16T07:30:45.792Z,24.40
2022-08-16T07:33:53.365Z,24.40
2022-08-16T07:36:30.888Z,24.50
2022-08-16T07:39:01.707Z,24.50
2022-08-16T07:41:35.733Z,24.60
2022-08-16T07:44:16.176Z,24.70
2022-08-16T07:46:46.788Z,24.80
2022-08-16T07:49:21.065Z,24.80
2022-08-16T07:51:54.502Z,24.80
2022-08-16T07:54:38.020Z,24.90
2022-08-16T07:57:18.987Z,24.90
2022-08-16T07:59:48.465Z,25.00
2022-08-16T08:02:21.017Z,25.00
2022-08-16T08:04:57.946Z,25.10
2022-08-16T08:07:32.368Z,25.20
2022-08-16T08:10:05.674Z,25.20
2022-08-16T08:12:40.406Z,25.20
2022-08-16T08:15:12.929Z,25.30
2022-08-16T08:17:43.972Z,25.40
2022-08-16T08:20:28.192Z,25.40
2022-08-16T08:23:03.341Z,25.40
2022-08-16T08:25:55.279Z,25.50
2022-08-16T08:28:31.830Z,25.50
2022-08-16T08:31:03.621Z,25.60
2022-08-16T08:33:35.485Z,25.60
2022-08-16T08:36:07.596Z,25.70
2022-08-16T08:38:44.127Z,25.70
2022-08-16T08:41:15.523Z,25.70
2022-08-16T08:43:50.490Z,25.80
2022-08-16T08:46:23.895Z,25.80
2022-08-16T08:49:02.096Z,25.80
2022-08-16T08:51:41.257Z,25.90
2022-08-16T08:54:18.815Z,26.00
2022-08-16T08:56:52.416Z,26.00
2022-08-16T08:59:32.950Z,26.00
2022-08-16T09:02:03.904Z,26.10
2022-08-16T09:04:47.704Z,26.10
2022-08-16T09:07:22.115Z,26.20
2022-08-16T09:10:06.465Z,26.30
2022-08-16T09:12:38.326Z,26.30
2022-08-16T09:15:14.486Z,26.40
2022-08-16T09:17:49.091Z,26.50
2022-08-16T09:20:25.941Z,26.50
2022-08-16T09:22:54.788Z,26.60
2022-08-16T09:25:34.211Z,26.60
2022-08-16T09:28:11.385Z,26.70
2022-08-16T09:30:45.660Z,26.80
2022-08-16T09:33:19.938Z,26.80
2022-08-16T09:35:53.190Z,26.90
2022-08-16T09:38:32.208Z,26.90
2022-08-16T09:41:06.073Z,27.00
2022-08-16T09:44:00.017Z,27.20
2022-08-16T09:46:45.288Z,27.20
2022-08-16T09:49:16.797Z,27.30
2022-08-16T09:51:55.619Z,27.50
2022-08-16T09:54:32.135Z,27.50
2022-08-16T09:57:00.648Z,27.50
2022-08-16T09:59:38.360Z,27.60
2022-08-16T10:02:26.197Z,27.60
2022-08-16T10:05:00.455Z,27.70
2022-08-16T10:07:56.013Z,27.80
2022-08-16T10:10:30.501Z,27.90
2022-08-16T10:13:16.179Z,28.00
2022-08-16T10:15:55.598Z,28.10
2022-08-16T10:19:00.209Z,28.20
2022-08-16T10:21:15.649Z,28.20
2022-08-16T10:23:44.274Z,28.20
2022-08-16T10:27:19.781Z,28.20
2022-08-16T10:29:10.772Z,28.00
2022-08-16T10:31:45.308Z,28.00
2022-08-16T10:34:31.460Z,27.90
2022-08-16T10:37:00.616Z,27.90
2022-08-16T10:39:40.862Z,27.90
2022-08-16T10:42:17.362Z,27.90
2022-08-16T10:44:54.605Z,27.90
2022-08-16T10:47:30.423Z,28.00
2022-08-16T10:50:05.793Z,28.10
2022-08-16T10:52:49.446Z,28.10
2022-08-16T10:58:13.670Z,28.00
2022-08-16T11:00:47.317Z,27.90
2022-08-16T11:06:12.213Z,27.90
2022-08-16T11:08:45.743Z,28.00
2022-08-16T11:11:19.822Z,28.10
2022-08-16T11:14:05.862Z,28.30
2022-08-16T11:19:33.608Z,28.30
2022-08-16T11:22:47.580Z,28.30
2022-08-16T11:26:07.387Z,28.40
2022-08-16T11:28:08.033Z,28.50
2022-08-16T11:30:39.008Z,28.60
2022-08-16T11:33:16.343Z,28.70
2022-08-16T11:35:44.769Z,28.70
2022-08-16T11:38:55.313Z,28.70
2022-08-16T11:41:20.993Z,28.70
2022-08-16T11:43:53.035Z,28.70
2022-08-16T11:46:43.236Z,28.70
2022-08-16T11:49:17.934Z,28.60
2022-08-16T11:51:45.847Z,28.70
2022-08-16T11:54:21.712Z,28.60
2022-08-16T11:56:57.373Z,28.50
2022-08-16T11:59:29.590Z,28.40
2022-08-16T12:01:59.198Z,28.40
2022-08-16T12:04:29.247Z,28.40
2022-08-16T12:07:00.582Z,28.50
2022-08-16T12:09:31.077Z,28.60
2022-08-16T12:12:03.884Z,28.60
2022-08-16T12:14:38.836Z,28.60
2022-08-16T12:17:14.319Z,28.50
2022-08-16T12:19:46.425Z,28.40
2022-08-16T12:22:18.898Z,28.30
2022-08-16T12:24:52.487Z,28.30
2022-08-16T12:27:27.954Z,28.30
2022-08-16T12:30:01.730Z,28.50
2022-08-16T12:32:39.250Z,28.60
2022-08-16T12:35:12.909Z,28.70
2022-08-16T12:40:29.073Z,28.90
2022-08-16T12:43:04.265Z,29.20
2022-08-16T12:45:35.582Z,29.30
2022-08-16T12:48:33.758Z,29.20
2022-08-16T12:51:04.658Z,29.30
2022-08-16T12:53:39.896Z,29.20
2022-08-16T12:56:11.632Z,29.20
2022-08-16T12:58:49.858Z,29.30
2022-08-16T13:01:25.955Z,29.20
2022-08-16T13:04:20.587Z,29.00
2022-08-16T13:06:48.706Z,28.80
2022-08-16T13:09:23.661Z,28.70
2022-08-16T13:12:19.274Z,28.60
2022-08-16T13:14:50.436Z,28.40
2022-08-16T13:17:21.894Z,28.30
2022-08-16T13:20:07.247Z,28.40
2022-08-16T13:22:42.150Z,28.50
2022-08-16T13:25:15.046Z,28.50
2022-08-16T13:28:02.462Z,28.60
2022-08-16T13:30:42.656Z,28.70
2022-08-16T13:33:18.961Z,28.80
2022-08-16T13:35:56.480Z,29.00
2022-08-16T13:38:37.128Z,29.10
2022-08-16T13:41:12.431Z,29.20
2022-08-16T13:43:42.927Z,29.30
2022-08-16T13:46:12.408Z,29.30
2022-08-16T13:48:44.667Z,29.40
2022-08-16T13:51:18.862Z,29.40
2022-08-16T13:53:49.648Z,29.50
2022-08-16T13:56:38.198Z,29.40
2022-08-16T13:59:20.520Z,29.40
2022-08-16T14:01:59.908Z,29.40
2022-08-16T14:04:36.525Z,29.20
2022-08-16T14:07:08.858Z,29.20
2022-08-16T14:09:36.868Z,29.10
2022-08-16T14:12:40.750Z,29.00
2022-08-16T14:15:11.883Z,28.90
2022-08-16T14:18:14.934Z,28.90
2022-08-16T14:20:29.777Z,28.90
2022-08-16T14:22:59.616Z,28.80
2022-08-16T14:25:29.324Z,28.80
2022-08-16T14:27:59.552Z,28.80
2022-08-16T14:30:32.781Z,28.80
2022-08-16T14:33:01.710Z,28.80
2022-08-16T14:35:48.130Z,28.80
2022-08-16T14:38:23.728Z,28.80
2022-08-16T14:40:55.575Z,28.80
2022-08-16T14:43:24.862Z,28.70
2022-08-16T14:45:59.339Z,28.70
2022-08-16T14:48:29.214Z,28.60
2022-08-16T14:51:01.118Z,28.50
2022-08-16T14:53:32.673Z,28.40
2022-08-16T14:56:05.548Z,28.40
2022-08-16T14:58:38.159Z,28.30
2022-08-16T15:01:10.621Z,28.40
2022-08-16T15:03:44.895Z,28.40
2022-08-16T15:06:16.878Z,28.40
2022-08-16T15:08:46.954Z,28.40
2022-08-16T15:11:14.480Z,28.40
2022-08-16T15:13:44.157Z,28.30
2022-08-16T15:16:11.896Z,28.20
2022-08-16T15:18:39.525Z,28.10
2022-08-16T15:21:08.447Z,28.00
2022-08-16T15:23:41.462Z,27.90
2022-08-16T15:26:29.629Z,27.80
2022-08-16T15:29:04.054Z,27.80
2022-08-16T15:31:33.663Z,27.70
2022-08-16T15:34:05.087Z,27.70
2022-08-16T15:36:32.414Z,27.70
2022-08-16T15:39:30.515Z,27.70
2022-08-16T15:42:11.224Z,27.80
2022-08-16T15:44:52.911Z,27.90
2022-08-16T15:47:26.391Z,28.00
2022-08-16T15:49:56.297Z,28.10
2022-08-16T15:52:30.543Z,28.20
2022-08-16T15:55:12.995Z,28.20
2022-08-16T15:57:51.654Z,28.30
2022-08-16T16:00:26.481Z,28.30
2022-08-16T16:03:08.738Z,28.40
2022-08-16T16:05:40.894Z,28.50
2022-08-16T16:08:12.835Z,28.50
2022-08-16T16:10:43.490Z,28.50
2022-08-16T16:13:24.367Z,28.40
2022-08-16T16:15:55.801Z,28.50
2022-08-16T16:20:57.395Z,28.90
2022-08-16T16:23:33.267Z,32.50
2022-08-16T16:26:06.549Z,32.20
2022-08-16T16:29:06.497Z,31.70
2022-08-16T16:31:22.072Z,31.00
2022-08-16T16:33:55.860Z,30.50
2022-08-16T16:36:29.486Z,30.20
2022-08-16T16:39:04.511Z,29.70
2022-08-16T16:41:37.200Z,29.40
2022-08-16T16:44:09.347Z,29.30
2022-08-16T16:46:56.515Z,29.10
2022-08-16T16:49:25.121Z,28.90
2022-08-16T16:52:07.004Z,28.80
2022-08-16T16:54:35.652Z,28.70
2022-08-16T16:57:30.010Z,28.60
2022-08-16T17:00:30.114Z,28.50
2022-08-16T17:02:56.520Z,28.40
2022-08-16T17:05:32.538Z,28.30
2022-08-16T17:08:00.816Z,28.20
2022-08-16T17:10:45.990Z,28.20
2022-08-16T17:13:17.176Z,28.00
2022-08-16T17:15:47.283Z,27.90
2022-08-16T17:19:14.570Z,27.80
2022-08-16T17:21:13.302Z,27.70
2022-08-16T17:23:58.027Z,27.60
2022-08-16T17:26:31.003Z,27.50
2022-08-16T17:29:02.216Z,27.40
2022-08-16T17:31:40.946Z,27.40
2022-08-16T17:34:29.560Z,27.20
2022-08-16T17:37:08.132Z,27.10
2022-08-16T17:39:45.292Z,26.90
2022-08-16T17:42:32.079Z,26.80
2022-08-16T17:44:59.669Z,26.70
2022-08-16T17:47:31.023Z,26.50
2022-08-16T17:49:58.836Z,26.40
2022-08-16T17:52:35.176Z,26.30
2022-08-16T17:55:23.539Z,26.30
2022-08-16T17:57:52.243Z,26.10
2022-08-16T18:00:23.147Z,26.00
2022-08-16T18:02:51.784Z,26.00
2022-08-16T18:05:22.465Z,25.90
2022-08-16T18:07:50.358Z,25.80
2022-08-16T18:10:32.875Z,25.70
2022-08-16T18:13:05.645Z,26.00
2022-08-16T18:15:35.321Z,25.50
2022-08-16T18:18:02.485Z,25.50
2022-08-16T18:20:53.223Z,25.30
2022-08-16T18:23:25.317Z,25.30
2022-08-16T18:25:57.698Z,25.30
2022-08-16T18:28:26.837Z,25.10
2022-08-16T18:31:00.794Z,25.00
2022-08-16T18:33:31.512Z,25.00
2022-08-16T18:36:02.840Z,24.90
2022-08-16T18:38:34.829Z,24.90
2022-08-16T18:41:05.013Z,24.80
2022-08-16T18:44:24.120Z,24.80
2022-08-16T18:46:23.287Z,24.70
2022-08-16T18:48:52.542Z,24.70
2022-08-16T18:51:24.457Z,24.60
2022-08-16T18:53:55.640Z,24.60
2022-08-16T18:56:25.017Z,24.50
2022-08-16T18:59:14.409Z,24.50
2022-08-16T19:01:44.277Z,24.50
2022-08-16T19:04:48.114Z,24.50
2022-08-16T19:07:03.189Z,24.50
2022-08-16T19:09:32.861Z,24.40
2022-08-16T19:12:04.870Z,24.30
2022-08-16T19:14:34.697Z,24.20
2022-08-16T19:17:05.364Z,24.20
2022-08-16T19:19:37.328Z,24.10
2022-08-16T19:22:06.198Z,24.00
2022-08-16T19:24:35.655Z,23.90
2022-08-16T19:27:07.228Z,23.90
2022-08-16T19:29:34.733Z,23.90
2022-08-16T19:32:06.319Z,23.90
2022-08-16T19:34:33.621Z,23.90
2022-08-16T19:37:05.910Z,23.90
2022-08-16T19:39:36.576Z,23.90
2022-08-16T19:42:16.131Z,23.90
2022-08-16T19:44:46.717Z,23.90
2022-08-16T19:47:16.789Z,23.80
2022-08-16T19:49:46.716Z,23.80
2022-08-16T19:52:30.399Z,23.80
2022-08-16T19:55:08.110Z,23.70
2022-08-16T19:57:45.782Z,23.80
2022-08-16T20:00:18.370Z,23.80
2022-08-16T20:02:52.372Z,23.80
2022-08-16T20:05:27.068Z,23.80
2022-08-16T20:08:04.337Z,23.80
2022-08-16T20:10:32.450Z,23.80
2022-08-16T20:13:02.295Z,23.80
2022-08-16T20:15:35.851Z,23.80
2022-08-16T20:18:22.834Z,23.80
2022-08-16T20:20:58.570Z,23.80
2022-08-16T20:23:28.352Z,23.80
2022-08-16T20:25:57.791Z,23.70
2022-08-16T20:28:40.729Z,23.60
2022-08-16T20:31:19.497Z,23.50
2022-08-16T20:33:50.727Z,23.60
2022-08-16T20:36:24.366Z,23.60
2022-08-16T20:38:52.669Z,23.60
2022-08-16T20:41:24.400Z,23.50
2022-08-16T20:43:56.327Z,23.50
2022-08-16T20:46:26.842Z,23.40
2022-08-16T20:48:56.562Z,23.50
2022-08-16T20:51:25.887Z,23.40
2022-08-16T20:53:58.275Z,23.40
2022-08-16T20:56:25.404Z,23.40
2022-08-16T20:58:52.645Z,23.40
2022-08-16T21:01:22.467Z,23.30
2022-08-16T21:03:51.910Z,23.30
2022-08-16T21:06:21.176Z,23.20
2022-08-16T21:08:53.183Z,23.10
2022-08-16T21:11:24.209Z,23.10
2022-08-16T21:14:00.588Z,23.00
2022-08-16T21:16:32.600Z,23.00
2022-08-16T21:19:02.729Z,23.00
2022-08-16T21:21:33.694Z,22.90
2022-08-16T21:24:04.581Z,22.80
2022-08-16T21:26:38.837Z,22.70
2022-08-16T21:29:11.220Z,22.80
2022-08-16T21:31:45.034Z,22.80
2022-08-16T21:34:12.286Z,22.80
2022-08-16T21:36:39.640Z,22.70
2022-08-16T21:39:09.167Z,22.70
2022-08-16T21:41:38.782Z,22.70
2022-08-16T21:44:08.164Z,22.70
2022-08-16T21:46:40.225Z,22.60
2022-08-16T21:49:07.489Z,22.60
2022-08-16T21:51:36.937Z,22.60
2022-08-16T21:54:04.525Z,22.60
2022-08-16T21:56:34.189Z,22.60
2022-08-16T21:59:10.887Z,22.60
2022-08-16T22:01:42.583Z,22.60
2022-08-16T22:04:37.854Z,22.50
2022-08-16T22:07:01.589Z,22.50
2022-08-16T22:09:31.451Z,22.40
2022-08-16T22:12:00.929Z,22.40
2022-08-16T22:14:30.827Z,22.30
2022-08-16T22:17:00.412Z,22.30
2022-08-16T22:19:27.476Z,22.20
2022-08-16T22:22:00.013Z,22.20
2022-08-16T22:24:27.294Z,22.20
2022-08-16T22:26:54.491Z,22.10
2022-08-16T22:29:21.936Z,22.00
2022-08-16T22:31:51.540Z,22.20
2022-08-16T22:34:21.406Z,22.10
2022-08-16T22:36:51.610Z,22.00
2022-08-16T22:39:23.724Z,22.00
2022-08-16T22:41:51.221Z,23.10
2022-08-16T22:44:23.877Z,21.80
2022-08-16T22:46:51.206Z,21.80
2022-08-16T22:49:21.001Z,21.90
2022-08-16T22:51:50.202Z,21.90
2022-08-16T22:54:40.954Z,21.90
2022-08-16T22:57:11.957Z,21.90
2022-08-16T22:59:41.765Z,21.80
2022-08-16T23:02:14.902Z,21.70
2022-08-16T23:04:44.767Z,21.70
2022-08-16T23:07:14.155Z,21.60
2022-08-16T23:09:43.514Z,21.70
2022-08-16T23:12:14.927Z,21.60
2022-08-16T23:14:48.337Z,21.70
2022-08-16T23:17:20.901Z,21.70
2022-08-16T23:19:52.911Z,21.70
2022-08-16T23:22:24.573Z,21.80
2022-08-16T23:24:56.989Z,21.70
2022-08-16T23:27:26.788Z,21.70
2022-08-16T23:29:53.927Z,21.70
2022-08-16T23:32:28.070Z,21.70
2022-08-16T23:34:55.154Z,21.60
2022-08-16T23:37:27.939Z,21.60
2022-08-16T23:39:57.530Z,21.60
2022-08-16T23:42:52.339Z,21.60
2022-08-16T23:45:17.653Z,21.60
2022-08-16T23:47:45.046Z,21.60
2022-08-16T23:50:14.727Z,21.50
2022-08-16T23:53:01.418Z,21.50
2022-08-16T23:55:43.593Z,21.50
2022-08-16T23:58:15.730Z,21.50
